Impacts METAR Board
IDs:

KJFK - New York/Kennedy Int, NY, US

Updated at: 2000 UTC 15 Jun 2019
Potential Impact None Slight Moderate High
Time 15/08Z 15/09Z 15/10Z 15/11Z 15/12Z 15/13Z 15/14Z 15/15Z 15/16Z 15/17Z 15/18Z 15/19Z 15/20Z
Temp61 59 58 62 65 69 72 72 74 72 75 75 74
Dewpt50 51 52 56 54 54 55 58 62 64 64 63 62
Altim30.13 30.13 30.13 30.16 30.16 30.15 30.14 30.13 30.11 30.09 30.06 30.04 30.03
VIS10 10 10 10 10 10 10 10 10 10 10 10 10
CIG-- -- 250 250 250 250 250 250 200 200 250 250 250
CoverSCTSCTBKNBKNBKNBKNBKNBKNBKNBKNBKNBKNBKN
FltCatVFRVFRVFRVFRVFRVFRVFRVFRVFRVFRVFRVFRVFR
WX--------------------------
WDir250250220230230230200170180190190190190
WSpd7 4 6 10 6 7 8 10 14 14 14 18 18
WGst-- -- -- -- -- -- -- -- -- -- -- -- 28
Raw hourly METARs
KJFK 150751Z 25007KT 10SM SCT250 16/10 A3013 RMK AO2 SLP202 T01610100
KJFK 150851Z 25004KT 10SM SCT250 15/11 A3013 RMK AO2 SLP202 T01500106 51006
KJFK 150951Z 22006KT 10SM FEW200 BKN250 14/11 A3013 RMK AO2 SLP204 T01440111
KJFK 151051Z 23010KT 10SM FEW200 BKN250 17/13 A3016 RMK AO2 SLP211 T01670133
KJFK 151151Z 23006KT 10SM SCT200 BKN250 18/12 A3016 RMK AO2 SLP211 T01830122 10183 20128 51009
KJFK 151251Z 23007KT 10SM SCT200 BKN250 21/12 A3015 RMK AO2 SLP208 T02060122
KJFK 151351Z 20008KT 10SM SCT200 BKN250 22/13 A3014 RMK AO2 SLP205 T02220128
KJFK 151451Z 17010KT 10SM SCT200 BKN250 22/14 A3013 RMK AO2 SLP201 T02220144 58010
KJFK 151551Z 18014KT 10SM BKN200 BKN250 23/17 A3011 RMK AO2 SLP197 T02330167
KJFK 151651Z 19014KT 10SM BKN200 BKN250 22/18 A3009 RMK AO2 SLP188 T02220178
KJFK 151751Z 19014KT 10SM SCT200 BKN250 24/18 A3006 RMK AO2 SLP179 T02390178 10239 20183 58022
KJFK 151851Z 19018KT 10SM FEW055 SCT200 BKN250 24/17 A3004 RMK AO2 SLP170 T02390172
KJFK 151951Z 19018G28KT 10SM SCT190 BKN250 23/17 A3003 RMK AO2 PK WND 20028/1942 SLP168 T02330167



Page loaded:  20:51 UTC  |   01:51 PM Pacific  |   02:51 PM Mountain  |   03:51 PM Central  |   04:51 PM Eastern

 

ADVISORIES

FORECASTS

FORECASTS

OBSERVATIONS

USER TOOLS

ABOUT US